Time;durP1;ratioP1;P1;durP2;ratioP2;P2;SDS_P1;SDS_P2;PMS_P1;PMS_P2;Temp;Humidity;BMP_temperature;BMP_pressure;BME280_temperature;BME280_humidity;BME280_pressure;Samples;Min_cycle;Max_cycle;Signal;HPM_P1;HPM_P2
2022/07/13 00:01:09;;;;;;;3.83;1.70;;;21.60;96.30;;;;;;4132728;28;20084;-83
2022/07/13 00:03:10;;;;;;;3.33;1.55;;;21.60;96.40;;;;;;4115410;28;20193;-83
2022/07/13 00:05:10;;;;;;;3.58;2.20;;;21.60;96.40;;;;;;4147446;28;20050;-83
2022/07/13 00:07:11;;;;;;;2.33;1.83;;;21.50;96.40;;;;;;4147409;28;20046;-83
2022/07/13 00:09:11;;;;;;;2.78;2.10;;;21.50;96.40;;;;;;4115127;28;20057;-83
2022/07/13 00:11:12;;;;;;;2.80;1.70;;;21.50;96.60;;;;;;4147280;28;20053;-83
2022/07/13 00:13:13;;;;;;;4.07;1.90;;;21.50;96.60;;;;;;4132309;28;20046;-83
2022/07/13 00:15:13;;;;;;;3.75;2.00;;;21.40;96.70;;;;;;4131514;28;20533;-83
2022/07/13 00:17:15;;;;;;;4.65;1.90;;;21.40;96.80;;;;;;4130957;28;20140;-83
2022/07/13 00:19:16;;;;;;;2.15;1.73;;;21.40;96.90;;;;;;4116304;28;20049;-83
2022/07/13 00:21:17;;;;;;;4.30;1.85;;;21.40;97.00;;;;;;4131603;28;20054;-83
2022/07/13 00:23:17;;;;;;;2.92;1.95;;;21.30;97.10;;;;;;4131556;28;20066;-83
2022/07/13 00:25:18;;;;;;;3.28;2.13;;;21.30;97.20;;;;;;4086854;29;20051;-83
2022/07/13 00:27:19;;;;;;;2.75;2.10;;;21.30;97.30;;;;;;4147561;28;20437;-84
2022/07/13 00:29:19;;;;;;;2.38;1.80;;;21.30;97.30;;;;;;4115040;28;20130;-84
2022/07/13 00:31:20;;;;;;;3.88;1.98;;;21.30;97.40;;;;;;4132500;28;20061;-84
2022/07/13 00:33:21;;;;;;;2.10;1.88;;;21.30;97.30;;;;;;4099190;29;20055;-84
2022/07/13 00:35:21;;;;;;;4.25;2.10;;;21.30;97.40;;;;;;4132166;28;20470;-84
2022/07/13 00:37:22;;;;;;;4.05;2.30;;;21.30;97.40;;;;;;4132107;28;20085;-83
2022/07/13 00:39:23;;;;;;;6.03;2.30;;;21.30;97.40;;;;;;4132132;28;20129;-83
2022/07/13 00:41:23;;;;;;;4.93;2.40;;;21.30;97.40;;;;;;4131977;28;20423;-83
2022/07/13 00:43:24;;;;;;;5.28;2.17;;;21.30;97.30;;;;;;4131591;28;20049;-83
2022/07/13 00:45:25;;;;;;;4.95;2.17;;;21.30;97.30;;;;;;4131252;28;20034;-83
2022/07/13 00:47:32;;;;;;;2.67;1.95;;;21.30;97.30;;;;;;4131375;28;20483;-83
2022/07/13 00:49:32;;;;;;;3.33;2.00;;;21.30;97.30;;;;;;4131342;28;20116;-83
2022/07/13 00:51:33;;;;;;;2.63;2.22;;;21.40;97.30;;;;;;4113460;28;20744;-83
2022/07/13 00:53:38;;;;;;;2.90;2.35;;;21.40;97.30;;;;;;4097852;29;20520;-83
2022/07/13 00:55:39;;;;;;;4.82;2.20;;;21.30;97.30;;;;;;4115782;28;20045;-83
2022/07/13 00:57:40;;;;;;;3.65;2.30;;;21.30;97.20;;;;;;4114240;28;20508;-83
2022/07/13 00:59:41;;;;;;;4.93;2.50;;;21.30;97.10;;;;;;4115820;28;20057;-83
2022/07/13 01:01:41;;;;;;;4.88;2.72;;;21.30;97.00;;;;;;4130270;28;20053;-83
2022/07/13 01:03:42;;;;;;;3.83;2.38;;;21.40;97.00;;;;;;4100674;28;20050;-83
2022/07/13 01:05:43;;;;;;;3.35;2.33;;;21.30;96.90;;;;;;4146250;28;20527;-83
2022/07/13 01:07:45;;;;;;;5.10;2.72;;;21.50;96.90;;;;;;4145920;28;20076;-83
2022/07/13 01:09:47;;;;;;;3.10;2.70;;;21.40;96.90;;;;;;4131217;28;20126;-83
2022/07/13 01:11:48;;;;;;;6.15;3.20;;;21.40;96.80;;;;;;4113281;28;20051;-83
2022/07/13 01:13:50;;;;;;;8.20;2.90;;;21.40;96.70;;;;;;4113460;28;20046;-83
2022/07/13 01:15:52;;;;;;;5.45;3.03;;;21.40;96.70;;;;;;4097813;29;20054;-82
2022/07/13 01:17:54;;;;;;;5.93;2.90;;;21.40;96.60;;;;;;4146060;28;20147;-82
2022/07/13 01:19:56;;;;;;;3.42;2.72;;;21.40;96.60;;;;;;4113300;28;20050;-82
2022/07/13 01:22:00;;;;;;;7.22;3.15;;;21.40;96.60;;;;;;4131178;28;20053;-82
2022/07/13 01:24:01;;;;;;;5.07;3.53;;;21.40;96.60;;;;;;4113853;28;20523;-82
2022/07/13 01:26:03;;;;;;;5.50;3.03;;;21.40;96.60;;;;;;4100039;29;20051;-82
2022/07/13 01:28:03;;;;;;;4.45;2.72;;;21.40;96.50;;;;;;4132525;28;20046;-82
2022/07/13 01:30:05;;;;;;;4.18;3.00;;;21.40;96.50;;;;;;4098555;29;20047;-82
2022/07/13 01:32:06;;;;;;;3.75;3.10;;;21.40;96.50;;;;;;4131892;28;20076;-83
2022/07/13 01:34:08;;;;;;;7.90;2.92;;;21.40;96.50;;;;;;4131815;28;20125;-82
2022/07/13 01:36:10;;;;;;;6.80;3.65;;;21.40;96.50;;;;;;4114842;28;20047;-84
2022/07/13 01:38:10;;;;;;;5.35;3.50;;;21.40;96.40;;;;;;4131969;28;20046;-84
2022/07/13 01:40:12;;;;;;;5.68;3.45;;;21.40;96.40;;;;;;4114522;28;20126;-83
2022/07/13 01:42:13;;;;;;;6.13;3.72;;;21.40;96.40;;;;;;4131362;28;20121;-83
2022/07/13 01:44:15;;;;;;;3.75;3.10;;;21.40;96.30;;;;;;4131703;28;20038;-84
2022/07/13 01:46:17;;;;;;;6.50;3.20;;;21.40;96.20;;;;;;4114637;28;20442;-84
2022/07/13 01:48:17;;;;;;;5.65;3.72;;;21.40;96.10;;;;;;4131773;28;20446;-84
2022/07/13 01:50:20;;;;;;;7.90;3.45;;;21.40;96.10;;;;;;4131922;28;20042;-84
2022/07/13 01:52:21;;;;;;;6.38;4.00;;;21.40;96.10;;;;;;4098255;29;20063;-84
2022/07/13 01:54:22;;;;;;;6.28;3.17;;;21.50;96.00;;;;;;4146465;28;20042;-84
2022/07/13 01:56:22;;;;;;;5.00;3.38;;;21.40;96.00;;;;;;4146876;28;20060;-84
2022/07/13 01:58:23;;;;;;;4.43;3.58;;;21.50;96.10;;;;;;4114432;28;20039;-84
2022/07/13 02:00:24;;;;;;;6.32;3.60;;;21.40;96.10;;;;;;4146057;28;20077;-84
2022/07/13 02:02:25;;;;;;;7.10;3.88;;;21.40;96.10;;;;;;4113962;28;20058;-84
2022/07/13 02:04:26;;;;;;;5.65;3.67;;;21.40;96.10;;;;;;4113440;28;20041;-84
2022/07/13 02:06:26;;;;;;;4.35;3.22;;;21.40;96.10;;;;;;4146807;28;20124;-84
2022/07/13 02:08:28;;;;;;;5.88;3.30;;;21.40;96.30;;;;;;4114013;28;20130;-84
2022/07/13 02:10:34;;;;;;;4.65;3.67;;;21.40;96.10;;;;;;4131128;28;20069;-84
2022/07/13 02:12:35;;;;;;;10.13;3.53;;;21.30;96.10;;;;;;4114317;28;20059;-84
2022/07/13 02:14:36;;;;;;;4.47;3.42;;;21.40;96.20;;;;;;4131790;28;20077;-84
2022/07/13 02:16:36;;;;;;;6.20;3.40;;;21.30;96.20;;;;;;4115007;28;20047;-83
2022/07/13 02:18:37;;;;;;;5.82;3.80;;;21.30;96.30;;;;;;4134055;28;20046;-83
2022/07/13 02:20:38;;;;;;;6.47;3.85;;;21.30;96.20;;;;;;4117541;28;20081;-83
2022/07/13 02:22:44;;;;;;;4.57;3.40;;;21.30;96.20;;;;;;4149584;28;20057;-83
2022/07/13 02:24:45;;;;;;;5.60;3.13;;;21.30;96.20;;;;;;4148781;28;20038;-83
2022/07/13 02:26:45;;;;;;;4.68;3.50;;;21.30;96.20;;;;;;4134467;28;20047;-83
2022/07/13 02:28:46;;;;;;;7.40;4.20;;;21.30;96.20;;;;;;4134362;28;20046;-83
2022/07/13 02:30:47;;;;;;;3.95;3.28;;;21.30;96.20;;;;;;4133803;28;20044;-82
2022/07/13 02:32:47;;;;;;;4.15;3.25;;;21.30;96.10;;;;;;4134152;28;20050;-83
2022/07/13 02:34:48;;;;;;;5.88;3.58;;;21.30;96.10;;;;;;4116383;28;20518;-83
2022/07/13 02:36:51;;;;;;;6.43;4.00;;;21.30;95.90;;;;;;4134124;28;20446;-83
2022/07/13 02:38:51;;;;;;;5.57;3.60;;;21.30;95.80;;;;;;4116379;28;20062;-83
2022/07/13 02:40:52;;;;;;;6.63;3.80;;;21.30;95.70;;;;;;4133488;28;20515;-83
2022/07/13 02:42:53;;;;;;;5.20;3.58;;;21.40;95.60;;;;;;4133705;28;20088;-82
2022/07/13 02:44:54;;;;;;;6.15;3.85;;;21.40;95.50;;;;;;4116300;28;20118;-83
2022/07/13 02:46:54;;;;;;;6.43;3.67;;;21.40;95.40;;;;;;4117008;28;20046;-83
2022/07/13 02:48:55;;;;;;;4.93;3.13;;;21.40;95.40;;;;;;4134370;28;20042;-82
2022/07/13 02:50:57;;;;;;;6.47;3.65;;;21.40;95.30;;;;;;4117293;28;20042;-82
2022/07/13 02:52:58;;;;;;;8.80;4.07;;;21.40;95.30;;;;;;4116710;28;20046;-83
2022/07/13 02:54:58;;;;;;;8.38;3.80;;;21.40;95.30;;;;;;4117256;28;20121;-82
2022/07/13 02:56:59;;;;;;;5.25;3.47;;;21.30;95.30;;;;;;4134403;28;20395;-82
2022/07/13 02:59:00;;;;;;;6.47;3.45;;;21.30;95.40;;;;;;4116951;28;20114;-82
2022/07/13 03:01:01;;;;;;;6.07;3.78;;;21.30;95.40;;;;;;4116972;28;20068;-82
2022/07/13 03:03:02;;;;;;;8.88;4.00;;;21.30;95.40;;;;;;4100328;29;20051;-82
2022/07/13 03:05:03;;;;;;;4.15;3.30;;;21.30;95.40;;;;;;4148606;28;20049;-82
2022/07/13 03:07:04;;;;;;;6.00;4.07;;;21.30;95.50;;;;;;4116176;28;20051;-83
2022/07/13 03:09:05;;;;;;;6.10;3.55;;;21.30;95.50;;;;;;4116212;28;20129;-83
2022/07/13 03:11:06;;;;;;;6.32;3.65;;;21.30;95.50;;;;;;4133224;28;20490;-83
2022/07/13 03:13:07;;;;;;;7.03;3.85;;;21.30;95.50;;;;;;4100469;29;20047;-83
2022/07/13 03:15:08;;;;;;;5.22;3.35;;;21.30;95.50;;;;;;4116425;28;20133;-83
2022/07/13 03:17:09;;;;;;;4.78;3.38;;;21.30;95.50;;;;;;4134082;28;20079;-83
2022/07/13 03:19:09;;;;;;;8.30;4.15;;;21.30;95.60;;;;;;4115976;28;20129;-83
2022/07/13 03:21:10;;;;;;;4.50;3.53;;;21.30;95.60;;;;;;4148342;28;20108;-83
2022/07/13 03:23:11;;;;;;;7.25;3.70;;;21.30;95.60;;;;;;4115940;28;20126;-83
2022/07/13 03:25:12;;;;;;;5.75;3.40;;;21.20;95.60;;;;;;4148134;28;20509;-83
2022/07/13 03:27:13;;;;;;;7.30;3.88;;;21.30;95.60;;;;;;4132667;28;20410;-83
2022/07/13 03:29:14;;;;;;;6.28;4.03;;;21.30;95.60;;;;;;4132729;28;20115;-83
2022/07/13 03:31:14;;;;;;;6.40;3.90;;;21.20;95.60;;;;;;4133030;28;20046;-83
2022/07/13 03:33:15;;;;;;;6.65;3.42;;;21.20;95.70;;;;;;4116020;28;20039;-83
2022/07/13 03:35:16;;;;;;;7.88;4.10;;;21.20;95.70;;;;;;4116208;28;20049;-83
2022/07/13 03:37:16;;;;;;;5.72;4.03;;;21.20;95.70;;;;;;4099869;29;20480;-84
2022/07/13 03:39:17;;;;;;;6.05;3.75;;;21.20;95.70;;;;;;4133670;28;20061;-84
2022/07/13 03:41:18;;;;;;;7.25;5.00;;;21.20;95.80;;;;;;4100203;28;20058;-83
2022/07/13 03:43:19;;;;;;;4.55;3.42;;;21.20;95.80;;;;;;4133605;28;20026;-84
2022/07/13 03:45:19;;;;;;;7.65;3.80;;;21.20;95.80;;;;;;4133133;28;20065;-84
2022/07/13 03:47:20;;;;;;;6.60;3.92;;;21.20;95.80;;;;;;4132779;28;20403;-84
2022/07/13 03:49:21;;;;;;;10.90;3.83;;;21.10;95.80;;;;;;4133059;28;20061;-84
2022/07/13 03:51:22;;;;;;;6.43;4.70;;;21.20;95.80;;;;;;4115514;28;20055;-84
2022/07/13 03:53:22;;;;;;;5.25;3.97;;;21.20;95.70;;;;;;4148547;28;20528;-82
2022/07/13 03:55:23;;;;;;;6.20;3.50;;;21.20;95.70;;;;;;4132296;28;20050;-83
2022/07/13 03:57:24;;;;;;;6.25;3.42;;;21.20;95.70;;;;;;4115675;28;20055;-83
2022/07/13 03:59:24;;;;;;;5.40;4.13;;;21.20;95.80;;;;;;4131704;28;20050;-83
2022/07/13 04:01:25;;;;;;;8.20;3.95;;;21.20;95.70;;;;;;4114942;28;20055;-83
2022/07/13 04:03:26;;;;;;;7.32;4.45;;;21.10;95.60;;;;;;4115039;28;20534;-84
2022/07/13 04:05:27;;;;;;;5.60;3.58;;;21.20;95.60;;;;;;4116042;28;20047;-83
2022/07/13 04:07:27;;;;;;;5.93;3.45;;;21.20;95.80;;;;;;4131954;28;20065;-83
2022/07/13 04:09:29;;;;;;;6.75;3.92;;;21.20;95.50;;;;;;4133775;28;20497;-83
2022/07/13 04:11:30;;;;;;;4.90;3.70;;;21.20;95.50;;;;;;4132138;28;20122;-83
2022/07/13 04:13:30;;;;;;;8.82;3.15;;;21.20;95.50;;;;;;4114484;28;20051;-83
2022/07/13 04:15:31;;;;;;;5.80;3.58;;;21.20;95.50;;;;;;4098568;29;20047;-84
2022/07/13 04:17:32;;;;;;;4.97;3.60;;;21.10;95.40;;;;;;4131949;28;20073;-83
2022/07/13 04:19:33;;;;;;;9.73;4.10;;;21.10;95.40;;;;;;4131726;28;20046;-84
2022/07/13 04:21:33;;;;;;;4.63;3.58;;;21.20;95.40;;;;;;4130855;28;20050;-84
2022/07/13 04:23:34;;;;;;;9.52;3.63;;;21.10;95.40;;;;;;4146244;28;20046;-84
2022/07/13 04:25:35;;;;;;;11.68;3.35;;;21.10;95.30;;;;;;4141632;28;20511;-84
2022/07/13 04:27:36;;;;;;;6.53;3.65;;;21.10;95.30;;;;;;4125735;28;20078;-84
2022/07/13 04:29:36;;;;;;;7.47;3.70;;;21.20;95.30;;;;;;4138434;28;20045;-84
2022/07/13 04:31:37;;;;;;;7.43;3.45;;;21.20;95.30;;;;;;4107297;28;20045;-83
2022/07/13 04:33:37;;;;;;;5.82;4.03;;;21.20;95.20;;;;;;4131325;28;20052;-84
2022/07/13 04:35:38;;;;;;;5.25;3.00;;;21.20;95.30;;;;;;4113881;28;20420;-84
2022/07/13 04:37:42;;;;;;;7.20;3.90;;;21.20;95.30;;;;;;4114258;28;20514;-84
2022/07/13 04:39:43;;;;;;;6.78;3.30;;;21.10;95.30;;;;;;4146927;28;20635;-83
2022/07/13 04:41:43;;;;;;;6.22;3.53;;;21.10;95.30;;;;;;4097295;28;20073;-84
2022/07/13 04:43:45;;;;;;;4.85;3.50;;;21.10;95.30;;;;;;4113620;28;20042;-84
2022/07/13 04:45:46;;;;;;;4.40;3.10;;;21.10;95.30;;;;;;4131430;28;20054;-84
2022/07/13 04:47:46;;;;;;;5.00;3.50;;;21.20;95.30;;;;;;4141879;28;20396;-84
2022/07/13 04:49:47;;;;;;;6.18;3.80;;;21.10;95.40;;;;;;4123409;28;20358;-83
2022/07/13 04:51:49;;;;;;;6.32;3.90;;;21.20;95.40;;;;;;4131883;28;20093;-84
2022/07/13 04:53:50;;;;;;;7.65;3.80;;;21.10;95.40;;;;;;4132127;28;20103;-85
2022/07/13 04:55:51;;;;;;;14.73;5.07;;;21.20;95.40;;;;;;4099158;29;20520;-85
2022/07/13 04:57:54;;;;;;;5.32;3.75;;;21.20;95.40;;;;;;4147144;28;20061;-85
2022/07/13 04:59:55;;;;;;;5.82;4.10;;;21.20;95.50;;;;;;4102180;28;20111;-85
2022/07/13 05:01:56;;;;;;;6.55;4.03;;;21.20;95.50;;;;;;4097619;29;20047;-84
2022/07/13 05:03:57;;;;;;;4.75;3.45;;;21.20;95.50;;;;;;4148683;28;20057;-84
2022/07/13 05:05:57;;;;;;;5.75;3.92;;;21.20;95.50;;;;;;4098462;28;20039;-84
2022/07/13 05:08:00;;;;;;;5.75;4.13;;;21.20;95.60;;;;;;4130894;28;20133;-84
2022/07/13 05:10:00;;;;;;;5.70;3.28;;;21.10;95.60;;;;;;4116762;28;20611;-84
2022/07/13 05:12:02;;;;;;;9.00;5.47;;;21.20;95.60;;;;;;4144981;28;20046;-84
2022/07/13 05:14:04;;;;;;;6.32;3.60;;;21.10;95.70;;;;;;4118024;28;20046;-84
2022/07/13 05:16:05;;;;;;;6.53;3.70;;;21.10;95.70;;;;;;4115933;28;20043;-83
2022/07/13 05:18:06;;;;;;;5.82;4.38;;;21.10;95.80;;;;;;4115304;28;20542;-83
2022/07/13 05:20:07;;;;;;;6.95;3.45;;;21.10;95.90;;;;;;4148090;28;20422;-83
2022/07/13 05:22:08;;;;;;;6.90;4.10;;;21.10;96.00;;;;;;4132723;28;20129;-83
2022/07/13 05:24:10;;;;;;;7.68;4.15;;;21.10;96.10;;;;;;4112887;28;20163;-83
2022/07/13 05:26:10;;;;;;;6.53;3.90;;;21.10;96.10;;;;;;4113273;28;20047;-83
2022/07/13 05:28:11;;;;;;;7.82;3.95;;;21.10;96.10;;;;;;4114400;28;20252;-84
2022/07/13 05:30:12;;;;;;;5.25;3.70;;;21.10;96.30;;;;;;4132002;28;20506;-83
2022/07/13 05:32:13;;;;;;;5.47;3.78;;;21.10;96.40;;;;;;4132196;28;20053;-83
2022/07/13 05:34:13;;;;;;;5.97;4.15;;;21.00;96.40;;;;;;4131525;28;20039;-83
2022/07/13 05:36:14;;;;;;;10.43;4.68;;;21.00;96.50;;;;;;4141575;28;20052;-83
2022/07/13 05:38:15;;;;;;;14.05;4.32;;;21.10;96.60;;;;;;4113557;28;20047;-83
2022/07/13 05:40:16;;;;;;;6.22;4.03;;;21.00;96.70;;;;;;4131509;28;20117;-84
2022/07/13 05:42:16;;;;;;;7.70;4.40;;;21.00;96.80;;;;;;4144842;28;20472;-84
2022/07/13 05:44:17;;;;;;;6.20;4.20;;;21.00;97.10;;;;;;4113499;28;20082;-83
2022/07/13 05:46:18;;;;;;;10.60;4.90;;;21.00;97.00;;;;;;4113433;28;20051;-83
2022/07/13 05:48:18;;;;;;;6.68;4.60;;;21.00;97.00;;;;;;4133196;28;20046;-83
2022/07/13 05:50:19;;;;;;;9.48;5.18;;;21.00;97.10;;;;;;4130978;28;20046;-84
2022/07/13 05:52:20;;;;;;;7.50;4.95;;;21.00;97.10;;;;;;4143491;28;20427;-84
2022/07/13 05:54:20;;;;;;;7.97;4.90;;;21.00;97.20;;;;;;4129557;28;20071;-83
2022/07/13 05:56:21;;;;;;;9.93;4.30;;;21.00;97.30;;;;;;4121433;28;20058;-84
2022/07/13 05:58:22;;;;;;;9.05;5.35;;;21.00;97.40;;;;;;4131797;28;20125;-84
2022/07/13 06:00:22;;;;;;;11.48;5.63;;;21.00;97.50;;;;;;4124782;28;20384;-84
2022/07/13 06:02:23;;;;;;;13.57;4.85;;;21.00;97.60;;;;;;4145665;28;20050;-83
2022/07/13 06:04:24;;;;;;;10.57;5.47;;;21.00;97.70;;;;;;4141080;28;20100;-84
2022/07/13 06:06:25;;;;;;;9.88;4.90;;;21.00;98.00;;;;;;4115749;28;20057;-83
2022/07/13 06:08:25;;;;;;;15.77;5.60;;;21.00;98.00;;;;;;4135460;28;20125;-83
2022/07/13 06:10:26;;;;;;;8.45;5.95;;;21.00;98.00;;;;;;4157330;28;20086;-83
2022/07/13 06:12:28;;;;;;;8.57;5.28;;;21.10;98.20;;;;;;4128557;28;20038;-84
2022/07/13 06:14:28;;;;;;;9.13;5.50;;;21.10;98.30;;;;;;4134038;28;20042;-84
2022/07/13 06:16:29;;;;;;;8.18;5.70;;;21.10;98.50;;;;;;4138644;28;20052;-83
2022/07/13 06:18:30;;;;;;;8.73;5.78;;;21.10;98.60;;;;;;4144657;28;20088;-83
2022/07/13 06:20:31;;;;;;;8.00;5.10;;;21.10;98.70;;;;;;4147719;28;20044;-83
2022/07/13 06:22:32;;;;;;;9.20;5.38;;;21.20;99.00;;;;;;4103762;28;20059;-83
2022/07/13 06:24:32;;;;;;;7.50;5.07;;;21.20;99.00;;;;;;4133110;28;20465;-83
2022/07/13 06:26:33;;;;;;;11.00;5.82;;;21.20;99.10;;;;;;4145820;28;20129;-83
2022/07/13 06:28:34;;;;;;;9.15;5.53;;;21.20;99.10;;;;;;4122485;28;20038;-83
2022/07/13 06:30:35;;;;;;;11.60;5.90;;;21.30;99.10;;;;;;4127237;28;20100;-83
2022/07/13 06:32:36;;;;;;;8.88;5.43;;;21.30;99.10;;;;;;4116749;28;20167;-83
2022/07/13 06:34:37;;;;;;;8.95;6.18;;;21.40;99.20;;;;;;4134190;28;20166;-83
2022/07/13 06:36:38;;;;;;;11.50;5.35;;;21.40;99.30;;;;;;4141722;28;20074;-84
2022/07/13 06:38:39;;;;;;;9.73;5.70;;;21.40;99.50;;;;;;4135254;28;20054;-84
2022/07/13 06:40:40;;;;;;;13.43;6.07;;;21.50;99.60;;;;;;4143349;28;20133;-84
2022/07/13 06:42:40;;;;;;;9.00;5.43;;;21.60;99.60;;;;;;4104174;28;20154;-84
2022/07/13 06:44:41;;;;;;;7.60;5.57;;;21.60;99.70;;;;;;4121690;28;20039;-84
2022/07/13 06:46:42;;;;;;;11.82;6.10;;;21.60;99.80;;;;;;4129876;28;20050;-84
2022/07/13 06:48:43;;;;;;;12.88;5.72;;;21.60;99.80;;;;;;4134106;28;20105;-84
2022/07/13 06:50:44;;;;;;;11.88;6.20;;;21.60;99.90;;;;;;4135001;28;20535;-84
2022/07/13 06:52:45;;;;;;;7.95;5.00;;;21.70;99.90;;;;;;4144015;28;20042;-84
2022/07/13 06:54:47;;;;;;;11.00;5.57;;;21.80;99.90;;;;;;4104704;28;20191;-84
2022/07/13 06:56:47;;;;;;;10.82;5.53;;;21.90;99.90;;;;;;4123659;28;20043;-84
2022/07/13 06:58:49;;;;;;;10.35;5.88;;;22.00;99.90;;;;;;4132604;28;20105;-84
2022/07/13 07:00:49;;;;;;;10.73;6.00;;;22.10;99.90;;;;;;4132699;28;20046;-84
2022/07/13 07:02:50;;;;;;;11.48;5.88;;;22.10;99.80;;;;;;4132707;28;20053;-84
2022/07/13 07:04:51;;;;;;;11.65;5.07;;;22.20;99.80;;;;;;4131762;28;20058;-83
2022/07/13 07:06:52;;;;;;;12.10;5.30;;;22.30;99.80;;;;;;4132841;28;20066;-84
2022/07/13 07:08:53;;;;;;;14.20;6.65;;;22.30;99.90;;;;;;4133509;28;20097;-84
2022/07/13 07:10:53;;;;;;;9.23;5.10;;;22.40;99.80;;;;;;4132911;28;20053;-84
2022/07/13 07:12:54;;;;;;;15.10;5.40;;;22.40;99.80;;;;;;4142783;28;20101;-82
2022/07/13 07:14:55;;;;;;;12.60;5.57;;;22.50;99.70;;;;;;4102626;28;20046;-83
2022/07/13 07:16:56;;;;;;;16.40;5.28;;;22.60;99.60;;;;;;4143191;28;20581;-83
2022/07/13 07:18:56;;;;;;;9.52;5.55;;;22.70;99.60;;;;;;4104227;28;20513;-83
2022/07/13 07:21:00;;;;;;;7.97;5.10;;;22.80;99.50;;;;;;4124766;28;20047;-83
2022/07/13 07:23:00;;;;;;;8.82;5.30;;;22.80;99.50;;;;;;4120416;28;20537;-83
2022/07/13 07:25:01;;;;;;;9.68;5.72;;;22.80;99.50;;;;;;4111794;28;20054;-83
2022/07/13 07:27:05;;;;;;;8.80;5.68;;;22.90;99.60;;;;;;4132035;28;20042;-83
2022/07/13 07:29:06;;;;;;;10.85;6.60;;;23.00;99.60;;;;;;4131167;28;20061;-84
2022/07/13 07:31:06;;;;;;;11.55;5.45;;;23.10;99.60;;;;;;4132247;28;20042;-83
2022/07/13 07:33:07;;;;;;;14.23;6.22;;;23.20;99.60;;;;;;4132166;28;20125;-83
2022/07/13 07:35:08;;;;;;;8.57;5.32;;;23.40;99.70;;;;;;4132162;28;20041;-83
2022/07/13 07:37:09;;;;;;;10.02;6.18;;;23.50;99.60;;;;;;4135874;28;20038;-84
2022/07/13 07:39:11;;;;;;;12.88;7.03;;;23.60;99.30;;;;;;4093815;28;1111670;-84
2022/07/13 07:41:12;;;;;;;14.90;6.63;;;23.60;99.20;;;;;;4132105;28;20077;-84
2022/07/13 07:43:13;;;;;;;11.02;6.50;;;23.70;99.00;;;;;;4132649;28;20454;-83
2022/07/13 07:45:14;;;;;;;10.23;6.78;;;23.70;98.90;;;;;;4132401;28;20072;-83
2022/07/13 07:47:15;;;;;;;9.95;7.07;;;23.90;99.00;;;;;;4132762;28;20490;-84
2022/07/13 07:49:16;;;;;;;10.15;5.88;;;23.90;98.70;;;;;;4132304;28;20041;-83
2022/07/13 07:51:18;;;;;;;13.48;6.30;;;24.00;98.60;;;;;;4115089;28;20479;-83
2022/07/13 07:53:18;;;;;;;11.27;6.57;;;24.10;98.40;;;;;;4115369;28;20058;-83
2022/07/13 07:55:19;;;;;;;13.30;7.45;;;24.20;98.50;;;;;;4115083;28;20055;-83
2022/07/13 07:57:20;;;;;;;11.20;6.75;;;24.30;98.70;;;;;;4115971;28;20063;-83
2022/07/13 07:59:21;;;;;;;13.95;7.07;;;24.40;98.30;;;;;;4114909;28;20078;-84
2022/07/13 08:01:21;;;;;;;13.93;7.28;;;24.50;98.20;;;;;;4132521;28;20059;-83
2022/07/13 08:03:23;;;;;;;12.98;7.47;;;24.50;98.00;;;;;;4132272;28;20479;-84
2022/07/13 08:05:24;;;;;;;12.23;7.15;;;24.60;97.70;;;;;;4132620;28;20089;-84
2022/07/13 08:07:24;;;;;;;11.90;6.63;;;24.60;97.60;;;;;;4143275;28;20054;-84
2022/07/13 08:09:25;;;;;;;13.10;6.75;;;24.60;97.50;;;;;;4126788;28;20159;-85
2022/07/13 08:11:26;;;;;;;9.05;5.78;;;24.70;97.50;;;;;;4131958;28;20479;-85
2022/07/13 08:13:27;;;;;;;13.80;6.47;;;24.80;97.20;;;;;;4132554;28;20050;-84
2022/07/13 08:15:28;;;;;;;11.20;6.45;;;25.00;96.90;;;;;;4131282;28;20043;-84
2022/07/13 08:17:29;;;;;;;12.85;6.30;;;25.10;96.80;;;;;;4132673;28;20049;-83
2022/07/13 08:19:29;;;;;;;11.30;6.82;;;25.20;96.70;;;;;;4132576;28;20399;-84
2022/07/13 08:21:31;;;;;;;11.95;6.65;;;25.30;96.60;;;;;;4132214;28;20039;-83
2022/07/13 08:25:51;;;;;;;;;;;25.40;95.80;;;;;;4140893;28;20661;-83
2022/07/13 08:27:51;;;;;;;10.10;5.75;;;25.50;94.90;;;;;;4123996;28;19925;-83
2022/07/13 08:29:52;;;;;;;10.10;5.50;;;25.60;95.50;;;;;;4144161;28;20061;-83
2022/07/13 08:31:54;;;;;;;11.05;5.70;;;25.70;95.40;;;;;;4127940;28;20390;-84
2022/07/13 08:38:37;;;;;;;14.75;7.45;;;26.10;94.00;;;;;;4143467;28;20422;-83
2022/07/13 08:40:43;;;;;;;14.98;5.55;;;26.20;93.80;;;;;;4131993;28;20054;-83
2022/07/13 08:42:44;;;;;;;9.30;5.28;;;26.40;93.90;;;;;;4098398;28;20098;-84
2022/07/13 08:44:45;;;;;;;6.90;4.40;;;26.50;93.60;;;;;;4131445;28;20509;-83
2022/07/13 08:46:46;;;;;;;7.20;4.03;;;26.60;93.60;;;;;;4131469;28;20368;-84
2022/07/13 08:48:49;;;;;;;7.72;4.38;;;26.70;92.90;;;;;;4145825;28;20399;-84
2022/07/13 08:50:50;;;;;;;7.63;4.70;;;26.80;92.70;;;;;;4095959;29;20055;-83
2022/07/13 08:52:51;;;;;;;7.97;4.40;;;26.90;92.60;;;;;;4101452;28;20079;-84
2022/07/13 08:54:52;;;;;;;9.23;4.70;;;27.10;92.30;;;;;;4130121;28;20053;-83
2022/07/13 08:56:56;;;;;;;6.75;3.67;;;27.10;91.80;;;;;;4113110;28;20078;-84
2022/07/13 08:58:57;;;;;;;8.52;4.40;;;27.30;92.00;;;;;;4132079;28;20038;-84
2022/07/13 09:00:58;;;;;;;6.30;3.35;;;27.50;91.80;;;;;;4142607;28;20054;-83
2022/07/13 09:02:59;;;;;;;6.75;3.08;;;27.50;91.30;;;;;;4124258;28;20053;-83
2022/07/13 09:05:05;;;;;;;4.60;2.72;;;27.60;90.90;;;;;;4128135;28;20050;-83
2022/07/13 09:07:11;;;;;;;4.80;2.88;;;27.70;89.30;;;;;;4113968;28;20474;-83
2022/07/13 09:09:31;;;;;;;8.30;3.78;;;27.80;89.40;;;;;;4131680;28;20498;-83
2022/07/13 09:11:32;;;;;;;4.80;3.20;;;28.00;88.10;;;;;;4130928;28;20054;-83
2022/07/13 09:13:45;;;;;;;5.38;2.75;;;28.10;89.00;;;;;;4143677;28;20111;-83
2022/07/13 09:15:45;;;;;;;7.63;3.47;;;28.20;87.60;;;;;;4111196;28;20050;-84
2022/07/13 09:17:47;;;;;;;5.03;3.03;;;28.30;87.60;;;;;;4148792;28;20431;-83
2022/07/13 09:19:48;;;;;;;6.78;3.30;;;28.30;86.30;;;;;;4131673;28;20047;-84
2022/07/13 09:21:49;;;;;;;6.80;2.97;;;28.40;85.50;;;;;;4131906;28;20053;-84
2022/07/13 09:23:55;;;;;;;4.57;2.33;;;28.60;85.80;;;;;;4114629;28;20511;-84
2022/07/13 09:25:56;;;;;;;3.55;2.30;;;28.70;84.70;;;;;;4131786;28;20484;-86
2022/07/13 09:28:03;;;;;;;4.25;2.53;;;28.90;84.20;;;;;;4114695;28;20082;-84
2022/07/13 09:30:20;;;;;;;5.95;2.38;;;29.00;81.40;;;;;;4146600;28;20059;-84
2022/07/13 09:32:22;;;;;;;5.32;2.28;;;29.10;79.70;;;;;;4150701;28;20060;-84
2022/07/13 09:34:45;;;;;;;5.15;2.70;;;29.30;79.90;;;;;;4142179;28;20045;-85
2022/07/13 09:36:46;;;;;;;3.55;2.13;;;29.40;77.30;;;;;;4141437;28;20517;-82
2022/07/13 09:38:51;;;;;;;4.32;2.45;;;29.60;79.40;;;;;;4140264;28;20114;-83
2022/07/13 09:40:52;;;;;;;3.38;2.03;;;29.90;78.60;;;;;;4127676;28;20094;-83
2022/07/13 09:47:35;;;;;;;5.65;2.30;;;30.30;72.60;;;;;;4135946;28;20054;-84
2022/07/13 09:49:41;;;;;;;4.40;1.95;;;30.40;73.40;;;;;;4149963;28;20105;-84
2022/07/13 09:51:44;;;;;;;2.88;2.15;;;30.60;71.70;;;;;;4135097;28;20054;-84
2022/07/13 09:53:45;;;;;;;3.10;2.15;;;30.60;70.20;;;;;;4114515;28;20113;-84
2022/07/13 09:55:48;;;;;;;3.25;1.98;;;30.60;69.60;;;;;;4131887;28;20053;-84
2022/07/13 09:57:57;;;;;;;4.10;2.17;;;30.60;69.20;;;;;;4131488;28;20038;-84
2022/07/13 10:00:01;;;;;;;3.40;1.60;;;30.60;67.40;;;;;;4131672;28;20045;-85
2022/07/13 10:02:03;;;;;;;3.60;1.80;;;30.70;68.20;;;;;;4131651;28;20134;-84
2022/07/13 10:04:05;;;;;;;7.53;2.70;;;30.80;67.50;;;;;;4132718;28;20534;-84
2022/07/13 10:06:06;;;;;;;7.55;2.10;;;31.00;67.20;;;;;;4133066;28;20471;-85
2022/07/13 10:08:08;;;;;;;4.82;2.75;;;31.10;65.70;;;;;;4133066;28;20502;-84
2022/07/13 10:10:13;;;;;;;3.72;2.25;;;31.20;65.70;;;;;;4115433;28;20047;-85
2022/07/13 10:12:16;;;;;;;6.95;2.22;;;31.30;64.50;;;;;;4132831;28;20048;-83
2022/07/13 10:14:19;;;;;;;4.25;2.50;;;31.30;63.60;;;;;;4132131;28;20042;-84
2022/07/13 10:16:20;;;;;;;6.22;2.80;;;31.40;62.60;;;;;;4131922;28;20046;-84
2022/07/13 10:18:27;;;;;;;5.35;2.42;;;31.40;63.10;;;;;;4130793;28;20042;-84
2022/07/13 10:20:29;;;;;;;4.05;1.92;;;31.30;63.10;;;;;;4131343;28;20053;-84
2022/07/13 10:22:37;;;;;;;2.53;1.08;;;31.30;63.10;;;;;;4131324;28;20046;-85
2022/07/13 10:24:54;;;;;;;1.80;1.10;;;31.40;61.50;;;;;;4131128;28;20450;-84
2022/07/13 10:27:28;;;;;;;3.13;1.75;;;31.50;58.00;;;;;;4113449;28;20107;-84
2022/07/13 10:29:31;;;;;;;2.70;1.40;;;31.70;57.20;;;;;;4092506;28;20521;-84
2022/07/13 10:31:36;;;;;;;3.50;1.70;;;31.70;56.90;;;;;;4131155;28;20069;-85
2022/07/13 10:33:43;;;;;;;1.65;1.20;;;31.60;57.80;;;;;;4131217;28;20590;-84
2022/07/13 10:35:52;;;;;;;4.00;1.42;;;31.60;55.30;;;;;;4131012;28;20050;-84
2022/07/13 10:37:56;;;;;;;4.13;1.67;;;31.60;54.60;;;;;;4131642;28;20043;-84
2022/07/13 10:40:15;;;;;;;8.02;2.00;;;31.60;55.40;;;;;;4133855;28;20537;-85
2022/07/13 10:42:18;;;;;;;5.47;2.28;;;31.70;56.30;;;;;;4148229;28;20626;-85
2022/07/13 10:44:36;;;;;;;6.00;1.77;;;31.80;55.80;;;;;;4134008;28;20090;-84